createdAt,value
2023-05-13T00:01:41.118Z,98917.47
2023-05-13T00:04:08.626Z,98909.53
2023-05-13T00:06:36.024Z,98917.59
2023-05-13T00:09:03.148Z,98909.97
2023-05-13T00:11:29.711Z,98919.28
2023-05-13T00:13:57.317Z,98917.59
2023-05-13T00:16:27.584Z,98919.41
2023-05-13T00:18:55.590Z,98919.50
2023-05-13T00:21:22.510Z,98915.06
2023-05-13T00:23:49.388Z,98917.81
2023-05-13T00:26:16.205Z,98918.66
2023-05-13T00:28:44.653Z,98920.47
2023-05-13T00:31:11.589Z,98905.47
2023-05-13T00:33:39.712Z,98925.78
2023-05-13T00:36:07.660Z,98923.13
2023-05-13T00:38:34.550Z,98930.22
2023-05-13T00:41:03.667Z,98925.84
2023-05-13T00:43:30.690Z,98932.97
2023-05-13T00:45:58.418Z,98931.50
2023-05-13T00:48:25.212Z,98937.53
2023-05-13T00:50:51.995Z,98939.34
2023-05-13T00:53:18.821Z,98940.19
2023-05-13T00:55:46.116Z,98942.94
2023-05-13T00:58:13.563Z,98948.25
2023-05-13T01:00:59.388Z,98942.09
2023-05-13T01:03:38.845Z,98938.81
2023-05-13T01:09:01.802Z,98949.44
2023-05-13T01:11:32.213Z,98943.25
2023-05-13T01:14:06.830Z,98942.44
2023-05-13T01:16:44.806Z,98941.56
2023-05-13T01:19:36.962Z,98960.09
2023-05-13T01:22:05.479Z,98941.50
2023-05-13T01:24:36.139Z,98958.53
2023-05-13T01:27:04.689Z,98951.75
2023-05-13T01:29:31.552Z,98963.81
2023-05-13T01:31:59.564Z,98968.28
2023-05-13T01:34:27.466Z,98945.09
2023-05-13T01:36:54.586Z,98955.25
2023-05-13T01:39:24.154Z,98950.63
2023-05-13T01:41:53.260Z,98969.47
2023-05-13T01:44:20.253Z,98972.00
2023-05-13T01:46:47.832Z,98966.06
2023-05-13T01:49:14.608Z,98967.66
2023-05-13T01:51:41.467Z,98974.75
2023-05-13T01:54:08.009Z,98973.91
2023-05-13T01:56:38.941Z,98978.38
2023-05-13T01:59:05.492Z,98977.50
2023-05-13T02:01:32.127Z,98975.78
2023-05-13T02:04:00.092Z,98976.66
2023-05-13T02:06:27.941Z,98975.19
2023-05-13T02:08:54.922Z,98979.44
2023-05-13T02:11:22.452Z,98968.91
2023-05-13T02:13:49.029Z,98983.03
2023-05-13T02:16:17.502Z,98986.63
2023-05-13T02:18:44.186Z,98984.91
2023-05-13T02:21:10.759Z,98989.38
2023-05-13T02:23:38.304Z,98973.06
2023-05-13T02:26:04.842Z,98989.47
2023-05-13T02:28:31.350Z,98983.34
2023-05-13T02:30:57.848Z,98980.69
2023-05-13T02:33:24.564Z,98980.81
2023-05-13T02:35:52.178Z,98986.22
2023-05-13T02:38:18.835Z,98986.09
2023-05-13T02:40:45.928Z,98985.22
2023-05-13T02:43:13.187Z,98976.56
2023-05-13T02:45:47.960Z,98979.41
2023-05-13T02:48:15.986Z,98973.72
2023-05-13T02:50:42.663Z,98991.59
2023-05-13T02:53:10.481Z,98994.34
2023-05-13T02:55:41.165Z,98997.97
2023-05-13T02:58:09.515Z,99003.38
2023-05-13T03:00:36.337Z,98997.97
2023-05-13T03:03:03.142Z,98988.84
2023-05-13T03:05:30.014Z,99006.84
2023-05-13T03:07:57.854Z,98989.50
2023-05-13T03:10:24.435Z,99006.00
2023-05-13T03:12:51.125Z,98993.19
2023-05-13T03:15:18.702Z,98989.81
2023-05-13T03:17:45.369Z,98999.03
2023-05-13T03:20:12.237Z,98994.03
2023-05-13T03:22:39.045Z,98997.63
2023-05-13T03:25:06.910Z,99004.44
2023-05-13T03:27:40.883Z,99007.91
2023-05-13T03:30:09.349Z,99004.44
2023-05-13T03:32:43.539Z,99005.50
2023-05-13T03:35:11.213Z,99012.56
2023-05-13T03:37:37.980Z,99011.09
2023-05-13T03:40:06.457Z,99020.63
2023-05-13T03:42:34.450Z,99017.13
2023-05-13T03:45:03.451Z,99012.78
2023-05-13T03:47:32.030Z,99013.00
2023-05-13T03:50:02.127Z,99018.28
2023-05-13T03:52:34.851Z,99025.41
2023-05-13T03:55:01.450Z,99028.03
2023-05-13T03:57:28.013Z,99033.34
2023-05-13T03:59:54.859Z,99029.94
2023-05-13T04:02:22.687Z,99035.03
2023-05-13T04:04:49.668Z,99007.66
2023-05-13T04:07:16.220Z,99011.03
2023-05-13T04:09:42.956Z,99038.31
2023-05-13T04:12:09.496Z,99040.00
2023-05-13T04:14:36.118Z,99049.63
2023-05-13T04:17:05.824Z,99046.03
2023-05-13T04:19:32.587Z,99043.38
2023-05-13T04:21:59.178Z,99048.69
2023-05-13T04:24:25.720Z,99031.31
2023-05-13T04:26:52.205Z,99041.69
2023-05-13T04:29:19.159Z,99027.41
2023-05-13T04:31:46.689Z,99044.34
2023-05-13T04:34:13.946Z,99046.03
2023-05-13T04:36:40.993Z,99052.09
2023-05-13T04:39:10.432Z,99047.94
2023-05-13T04:41:37.222Z,99052.81
2023-05-13T04:44:06.137Z,99020.69
2023-05-13T04:46:33.245Z,99061.50
2023-05-13T04:48:59.854Z,99059.72
2023-05-13T04:51:27.015Z,99063.19
2023-05-13T04:53:54.085Z,99064.91
2023-05-13T04:56:21.768Z,99062.25
2023-05-13T04:58:48.766Z,99052.91
2023-05-13T05:01:15.982Z,99067.56
2023-05-13T05:03:45.872Z,99067.56
2023-05-13T05:06:12.809Z,99055.69
2023-05-13T05:08:40.704Z,99072.84
2023-05-13T05:11:07.513Z,99069.25
2023-05-13T05:13:35.709Z,99069.25
2023-05-13T05:16:02.245Z,99070.09
2023-05-13T05:18:30.657Z,99073.47
2023-05-13T05:20:57.407Z,99065.53
2023-05-13T05:23:24.029Z,99082.06
2023-05-13T05:26:00.526Z,99065.53
2023-05-13T05:28:36.780Z,99076.53
2023-05-13T05:31:03.428Z,99061.31
2023-05-13T05:33:32.088Z,99078.34
2023-05-13T05:35:59.477Z,99083.53
2023-05-13T05:38:26.109Z,99083.44
2023-05-13T05:40:55.277Z,99063.84
2023-05-13T05:43:21.999Z,99079.00
2023-05-13T05:45:51.547Z,99083.34
2023-05-13T05:48:19.658Z,99083.22
2023-05-13T05:50:46.962Z,99079.72
2023-05-13T05:53:17.953Z,99086.72
2023-05-13T05:55:45.161Z,99084.19
2023-05-13T05:58:14.956Z,99076.25
2023-05-13T06:00:42.100Z,99085.78
2023-05-13T06:03:08.891Z,99081.31
2023-05-13T06:05:36.069Z,99083.88
2023-05-13T06:08:05.358Z,99079.41
2023-05-13T06:10:31.983Z,99083.00
2023-05-13T06:12:58.920Z,99086.41
2023-05-13T06:15:25.689Z,99087.25
2023-05-13T06:17:52.243Z,99083.88
2023-05-13T06:20:19.036Z,99089.81
2023-05-13T06:22:45.731Z,99087.25
2023-05-13T06:25:12.404Z,99092.53
2023-05-13T06:27:40.735Z,99099.53
2023-05-13T06:30:07.876Z,99083.13
2023-05-13T06:32:34.473Z,99099.47
2023-05-13T06:35:01.130Z,99098.47
2023-05-13T06:37:27.961Z,99095.75
2023-05-13T06:39:54.836Z,99096.56
2023-05-13T06:42:21.507Z,99094.75
2023-05-13T06:44:56.608Z,99085.88
2023-05-13T06:47:27.629Z,99086.22
2023-05-13T06:49:54.314Z,99086.63
2023-05-13T06:52:20.849Z,99097.22
2023-05-13T06:54:48.237Z,99097.22
2023-05-13T06:57:14.734Z,99090.09
2023-05-13T06:59:41.269Z,99093.50
2023-05-13T07:02:09.812Z,99066.28
2023-05-13T07:04:37.137Z,99088.22
2023-05-13T07:07:03.791Z,99093.50
2023-05-13T07:09:30.415Z,99092.56
2023-05-13T07:11:56.957Z,99089.03
2023-05-13T07:14:25.081Z,99088.97
2023-05-13T07:16:51.668Z,99091.59
2023-05-13T07:19:18.316Z,99085.38
2023-05-13T07:21:44.884Z,99084.59
2023-05-13T07:24:11.657Z,99088.00
2023-05-13T07:26:38.758Z,99087.25
2023-05-13T07:29:06.121Z,99079.19
2023-05-13T07:31:32.702Z,99087.25
2023-05-13T07:33:59.629Z,99094.16
2023-05-13T07:36:26.204Z,99086.06
2023-05-13T07:38:53.542Z,99088.00
2023-05-13T07:41:20.067Z,99088.72
2023-05-13T07:43:46.644Z,99090.44
2023-05-13T07:46:15.711Z,99093.06
2023-05-13T07:48:42.310Z,99087.66
2023-05-13T07:51:09.963Z,99094.78
2023-05-13T07:53:36.746Z,99084.59
2023-05-13T07:56:03.779Z,99098.06
2023-05-13T07:58:30.478Z,99100.19
2023-05-13T08:00:57.205Z,99092.66
2023-05-13T08:03:24.558Z,99096.47
2023-05-13T08:05:51.550Z,99103.03
2023-05-13T08:08:18.181Z,99086.31
2023-05-13T08:10:44.661Z,99096.03
2023-05-13T08:13:11.160Z,99094.03
2023-05-13T08:15:37.898Z,99081.00
2023-05-13T08:18:04.569Z,99069.25
2023-05-13T08:20:31.187Z,99090.00
2023-05-13T08:22:58.461Z,99089.69
2023-05-13T08:25:25.393Z,99091.28
2023-05-13T08:27:52.148Z,99095.50
2023-05-13T08:30:19.293Z,99105.06
2023-05-13T08:32:46.185Z,99082.81
2023-05-13T08:35:12.759Z,99094.56
2023-05-13T08:37:39.825Z,99089.56
2023-05-13T08:40:07.215Z,99101.34
2023-05-13T08:42:37.087Z,99096.78
2023-05-13T08:45:05.658Z,99097.75
2023-05-13T08:47:54.860Z,99095.97
2023-05-13T08:50:22.344Z,99090.75
2023-05-13T08:52:52.300Z,99090.75
2023-05-13T08:55:19.501Z,99076.53
2023-05-13T08:57:46.304Z,99075.59
2023-05-13T09:00:14.502Z,99082.59
2023-05-13T09:02:41.933Z,99071.34
2023-05-13T09:05:10.517Z,99065.31
2023-05-13T09:07:39.040Z,99073.69
2023-05-13T09:10:07.558Z,99048.59
2023-05-13T09:12:43.705Z,99064.69
2023-05-13T09:15:12.547Z,99063.28
2023-05-13T09:17:42.425Z,99076.22
2023-05-13T09:20:11.085Z,99065.41
2023-05-13T09:22:48.312Z,99069.03
2023-05-13T09:25:16.468Z,99054.50
2023-05-13T09:27:46.189Z,99062.75
2023-05-13T09:30:13.027Z,99050.69
2023-05-13T09:32:42.216Z,99060.09
2023-05-13T09:35:11.451Z,99035.97
2023-05-13T09:37:38.423Z,99053.03
2023-05-13T09:40:06.082Z,99038.72
2023-05-13T09:42:33.067Z,99047.72
2023-05-13T09:45:05.387Z,99058.19
2023-05-13T09:47:32.067Z,99057.25
2023-05-13T09:50:01.906Z,99060.09
2023-05-13T09:52:35.914Z,99077.63
2023-05-13T09:55:05.875Z,99042.84
2023-05-13T09:57:32.852Z,99061.09
2023-05-13T10:00:10.990Z,99045.38
2023-05-13T10:02:42.671Z,99065.09
2023-05-13T10:05:10.242Z,99045.50
2023-05-13T10:07:37.923Z,99049.63
2023-05-13T10:10:07.019Z,99050.88
2023-05-13T10:12:38.034Z,99043.78
2023-05-13T10:15:05.820Z,99035.53
2023-05-13T10:17:32.723Z,99053.44
2023-05-13T10:20:01.773Z,99052.59
2023-05-13T10:22:34.556Z,99050.72
2023-05-13T10:25:02.849Z,99045.31
2023-05-13T10:27:33.860Z,99044.44
2023-05-13T10:30:03.751Z,99047.00
2023-05-13T10:32:31.606Z,99048.69
2023-05-13T10:35:16.196Z,99045.41
2023-05-13T10:38:10.809Z,99051.13
2023-05-13T10:40:52.676Z,99044.97
2023-05-13T10:43:29.853Z,99048.47
2023-05-13T10:46:07.795Z,99023.44
2023-05-13T10:48:47.909Z,99036.78
2023-05-13T10:51:16.382Z,99042.34
2023-05-13T10:53:46.749Z,99032.34
2023-05-13T10:56:19.500Z,99042.84
2023-05-13T10:59:02.351Z,99045.50
2023-05-13T11:01:31.213Z,99036.69
2023-05-13T11:04:00.551Z,99034.03
2023-05-13T11:06:35.246Z,99034.03
2023-05-13T11:09:06.027Z,99031.38
2023-05-13T11:11:34.465Z,99032.13
2023-05-13T11:14:08.529Z,99033.94
2023-05-13T11:16:37.293Z,99032.97
2023-05-13T11:19:08.836Z,99021.53
2023-05-13T11:21:39.470Z,99019.72
2023-05-13T11:24:08.240Z,99019.09
2023-05-13T11:26:46.563Z,98995.91
2023-05-13T11:29:13.726Z,99019.72
2023-05-13T11:31:59.270Z,99019.72
2023-05-13T11:34:26.790Z,99016.09
2023-05-13T11:37:13.836Z,99015.16
2023-05-13T11:39:43.930Z,98996.53
2023-05-13T11:42:11.391Z,99001.81
2023-05-13T11:44:46.699Z,99019.50
2023-05-13T11:47:14.532Z,99019.50
2023-05-13T11:49:43.508Z,99020.34
2023-05-13T11:52:12.555Z,99022.03
2023-05-13T11:54:50.987Z,99010.81
2023-05-13T11:57:25.579Z,99010.47
2023-05-13T12:00:10.070Z,98995.47
2023-05-13T12:02:40.308Z,99017.69
2023-05-13T12:05:09.380Z,99015.16
2023-05-13T12:07:38.045Z,99022.16
2023-05-13T12:10:06.425Z,99020.44
2023-05-13T12:12:35.494Z,99006.38
2023-05-13T12:15:04.914Z,99022.28
2023-05-13T12:17:32.362Z,99015.16
2023-05-13T12:20:23.280Z,99006.38
2023-05-13T12:22:52.702Z,99015.28
2023-05-13T12:25:34.650Z,99022.28
2023-05-13T12:28:21.686Z,99013.44
2023-05-13T12:31:01.865Z,99025.00
2023-05-13T12:33:45.409Z,99024.28
2023-05-13T12:36:16.469Z,99025.88
2023-05-13T12:39:04.078Z,99018.88
2023-05-13T12:41:35.033Z,99029.47
2023-05-13T12:44:14.395Z,99018.56
2023-05-13T12:46:54.590Z,99026.00
2023-05-13T12:49:22.283Z,99024.63
2023-05-13T12:51:49.057Z,99035.59
2023-05-13T12:54:15.620Z,99037.31
2023-05-13T12:56:42.269Z,99028.53
2023-05-13T12:59:09.626Z,99028.53
2023-05-13T13:01:36.954Z,99026.19
2023-05-13T13:04:03.896Z,98991.97
2023-05-13T13:06:32.312Z,99027.56
2023-05-13T13:08:59.032Z,99020.56
2023-05-13T13:11:25.600Z,99019.81
2023-05-13T13:13:52.202Z,99024.91
2023-05-13T13:16:18.989Z,99024.16
2023-05-13T13:18:45.776Z,99028.53
2023-05-13T13:21:12.370Z,99025.88
2023-05-13T13:23:39.509Z,99033.81
2023-05-13T13:26:06.084Z,99038.16
2023-05-13T13:28:34.851Z,99025.88
2023-05-13T13:31:01.925Z,99017.28
2023-05-13T13:33:28.529Z,99020.78
2023-05-13T13:35:55.206Z,99015.59
2023-05-13T13:38:21.759Z,99036.25
2023-05-13T13:40:48.325Z,98939.28
2023-05-13T13:43:14.853Z,99034.56
2023-05-13T13:45:41.584Z,99027.44
2023-05-13T13:48:11.104Z,99021.53
2023-05-13T13:50:37.774Z,99028.28
2023-05-13T13:53:04.390Z,99022.16
2023-05-13T13:55:30.909Z,99035.41
2023-05-13T13:57:57.444Z,99028.28
2023-05-13T14:00:24.145Z,99030.22
2023-05-13T14:02:51.540Z,99036.25
2023-05-13T14:05:18.224Z,99023.53
2023-05-13T14:07:44.975Z,99033.59
2023-05-13T14:10:11.661Z,99037.94
2023-05-13T14:12:38.546Z,99005.66
2023-05-13T14:15:05.923Z,99033.25
2023-05-13T14:17:33.392Z,99035.81
2023-05-13T14:19:59.892Z,99031.25
2023-05-13T14:22:26.558Z,99044.38
2023-05-13T14:24:53.451Z,99031.47
2023-05-13T14:27:20.772Z,99047.03
2023-05-13T14:29:47.957Z,99042.72
2023-05-13T14:32:15.092Z,99041.84
2023-05-13T14:34:44.637Z,99026.00
2023-05-13T14:37:11.478Z,99053.31
2023-05-13T14:39:38.018Z,99051.50
2023-05-13T14:42:04.735Z,99031.25
2023-05-13T14:44:31.783Z,99020.44
2023-05-13T14:46:58.504Z,99052.63
2023-05-13T14:49:25.284Z,99046.25
2023-05-13T14:51:51.888Z,99049.66
2023-05-13T14:54:18.478Z,99056.66
2023-05-13T14:56:45.617Z,99052.94
2023-05-13T14:59:12.228Z,99046.78
2023-05-13T15:01:38.958Z,99025.38
2023-05-13T15:04:05.899Z,99053.66
2023-05-13T15:06:33.276Z,99042.09
2023-05-13T15:09:00.023Z,99026.38
2023-05-13T15:11:28.284Z,99041.13
2023-05-13T15:13:55.338Z,99024.84
2023-05-13T15:16:22.111Z,99042.00
2023-05-13T15:18:50.106Z,99024.84
2023-05-13T15:21:17.146Z,99011.91
2023-05-13T15:23:43.784Z,99008.94
2023-05-13T15:26:10.439Z,99004.91
2023-05-13T15:28:37.755Z,99020.66
2023-05-13T15:31:05.716Z,99033.06
2023-05-13T15:33:32.765Z,99030.31
2023-05-13T15:38:30.666Z,99036.47
2023-05-13T15:40:57.202Z,99025.84
2023-05-13T15:43:23.721Z,99033.81
2023-05-13T15:45:50.873Z,99029.34
2023-05-13T15:48:17.664Z,99040.81
2023-05-13T15:50:44.469Z,99021.13
2023-05-13T15:53:11.093Z,98956.34
2023-05-13T15:55:39.362Z,99002.59
2023-05-13T15:58:06.589Z,99029.47
2023-05-13T16:00:33.198Z,99024.78
2023-05-13T16:02:59.693Z,99026.47
2023-05-13T16:05:26.332Z,98981.56
2023-05-13T16:07:54.696Z,99007.41
2023-05-13T16:10:21.517Z,99014.91
2023-05-13T16:12:48.344Z,99008.25
2023-05-13T16:15:14.947Z,99000.63
2023-05-13T16:17:42.893Z,99001.16
2023-05-13T16:20:11.690Z,99013.09
2023-05-13T16:22:39.109Z,98993.41
2023-05-13T16:25:08.154Z,99013.97
2023-05-13T16:27:35.789Z,98999.56
2023-05-13T16:30:03.358Z,99018.28
2023-05-13T16:32:30.099Z,98978.28
2023-05-13T16:34:57.062Z,99019.25
2023-05-13T16:37:23.707Z,99012.38
2023-05-13T16:39:50.516Z,99020.44
2023-05-13T16:42:19.271Z,99015.88
2023-05-13T16:44:46.885Z,99011.41
2023-05-13T16:47:14.399Z,99008.75
2023-05-13T16:49:42.394Z,99012.25
2023-05-13T16:52:08.942Z,99010.44
2023-05-13T16:54:35.514Z,99007.78
2023-05-13T16:57:02.237Z,99007.78
2023-05-13T16:59:29.092Z,99000.69
2023-05-13T17:01:55.823Z,98980.16
2023-05-13T17:04:22.648Z,98986.19
2023-05-13T17:06:49.309Z,98999.22
2023-05-13T17:09:16.150Z,98996.19
2023-05-13T17:11:45.500Z,99003.72
2023-05-13T17:14:12.153Z,98998.25
2023-05-13T17:16:39.162Z,98986.75
2023-05-13T17:19:06.330Z,98993.75
2023-05-13T17:21:33.107Z,98978.09
2023-05-13T17:24:00.248Z,98997.91
2023-05-13T17:26:27.895Z,99004.38
2023-05-13T17:28:57.385Z,98989.94
2023-05-13T17:31:24.895Z,98991.75
2023-05-13T17:33:51.781Z,98990.63
2023-05-13T17:36:19.378Z,99001.28
2023-05-13T17:38:46.293Z,98992.94
2023-05-13T17:41:12.793Z,99001.00
2023-05-13T17:43:39.715Z,98999.53
2023-05-13T17:46:06.279Z,98980.78
2023-05-13T17:48:35.151Z,98981.00
2023-05-13T17:51:03.226Z,98959.94
2023-05-13T17:53:31.160Z,98999.94
2023-05-13T17:55:58.816Z,99004.41
2023-05-13T17:58:25.465Z,99008.00
2023-05-13T18:00:51.990Z,99003.91
2023-05-13T18:03:18.683Z,98950.75
2023-05-13T18:05:45.298Z,99008.44
2023-05-13T18:08:11.907Z,99012.56
2023-05-13T18:10:38.502Z,99014.06
2023-05-13T18:13:05.079Z,98991.03
2023-05-13T18:15:31.761Z,99022.56
2023-05-13T18:17:58.436Z,99022.56
2023-05-13T18:20:25.187Z,99029.31
2023-05-13T18:22:51.834Z,99024.75
2023-05-13T18:25:18.414Z,99003.88
2023-05-13T18:27:45.090Z,99028.09
2023-05-13T18:30:12.438Z,99024.78
2023-05-13T18:32:39.186Z,99028.59
2023-05-13T18:35:06.580Z,99036.19
2023-05-13T18:37:33.141Z,99039.38
2023-05-13T18:39:59.840Z,99039.75
2023-05-13T18:42:26.777Z,99043.16
2023-05-13T18:44:53.281Z,99024.31
2023-05-13T18:47:19.921Z,99040.69
2023-05-13T18:49:46.753Z,99046.06
2023-05-13T18:52:13.858Z,99041.97
2023-05-13T18:54:40.629Z,99041.44
2023-05-13T18:57:07.373Z,99043.56
2023-05-13T18:59:33.990Z,99050.38
2023-05-13T19:02:01.112Z,99046.88
2023-05-13T19:04:27.903Z,99060.78
2023-05-13T19:06:54.972Z,99040.97
2023-05-13T19:09:21.679Z,99069.06
2023-05-13T19:11:48.376Z,99059.22
2023-05-13T19:16:31.136Z,99066.63
2023-05-13T19:18:57.927Z,99069.09
2023-05-13T19:21:24.480Z,99074.28
2023-05-13T19:23:51.133Z,99067.94
2023-05-13T19:26:17.849Z,99068.69
2023-05-13T19:28:45.589Z,99070.28
2023-05-13T19:31:12.177Z,99072.72
2023-05-13T19:33:38.814Z,99050.59
2023-05-13T19:36:06.375Z,99075.28
2023-05-13T19:38:34.680Z,99058.84
2023-05-13T19:41:01.678Z,99023.63
2023-05-13T19:43:28.562Z,99078.44
2023-05-13T19:45:57.429Z,99082.91
2023-05-13T19:48:24.287Z,99067.84
2023-05-13T19:50:53.317Z,99067.75
2023-05-13T19:53:21.581Z,99072.97
2023-05-13T19:55:48.225Z,99076.44
2023-05-13T19:58:15.317Z,99062.38
2023-05-13T20:00:43.859Z,99073.69
2023-05-13T20:03:11.092Z,99072.72
2023-05-13T20:05:39.878Z,99069.13
2023-05-13T20:08:06.685Z,99049.31
2023-05-13T20:10:35.258Z,99067.31
2023-05-13T20:13:04.310Z,99069.03
2023-05-13T20:15:32.031Z,99061.09
2023-05-13T20:17:58.906Z,99064.59
2023-05-13T20:20:25.931Z,99059.28
2023-05-13T20:22:53.496Z,99053.13
2023-05-13T20:25:20.250Z,99048.91
2023-05-13T20:27:46.970Z,99060.13
2023-05-13T20:30:14.024Z,99047.94
2023-05-13T20:32:40.649Z,99052.31
2023-05-13T20:35:08.583Z,99047.00
2023-05-13T20:37:35.547Z,99051.34
2023-05-13T20:42:28.421Z,99046.25
2023-05-13T20:44:55.101Z,99040.00
2023-05-13T20:47:22.184Z,99045.31
2023-05-13T20:49:48.914Z,99043.50
2023-05-13T20:52:16.030Z,99034.28
2023-05-13T20:54:44.772Z,99046.25
2023-05-13T20:57:11.340Z,99033.00
2023-05-13T20:59:37.950Z,99033.97
2023-05-13T21:02:04.755Z,99034.81
2023-05-13T21:04:31.500Z,99030.03
2023-05-13T21:06:58.027Z,99041.06
2023-05-13T21:09:24.644Z,99041.91
2023-05-13T21:11:53.907Z,99034.06
2023-05-13T21:14:20.529Z,99034.91
2023-05-13T21:16:47.109Z,99026.97
2023-05-13T21:19:21.588Z,99035.78
2023-05-13T21:21:48.176Z,99036.72
2023-05-13T21:24:17.395Z,99037.56
2023-05-13T21:26:44.627Z,99036.72
2023-05-13T21:29:11.337Z,98989.03
2023-05-13T21:31:37.996Z,99022.84
2023-05-13T21:34:04.643Z,99022.72
2023-05-13T21:36:31.835Z,99027.09
2023-05-13T21:38:58.339Z,99028.03
2023-05-13T21:41:26.561Z,99028.03
2023-05-13T21:43:53.058Z,99032.50
2023-05-13T21:46:19.606Z,99028.91
2023-05-13T21:48:46.829Z,99032.50
2023-05-13T21:51:14.150Z,99031.63
2023-05-13T21:53:40.685Z,99029.84
2023-05-13T21:56:07.353Z,99017.78
2023-05-13T21:58:33.853Z,99030.78
2023-05-13T22:01:00.478Z,99034.38
2023-05-13T22:03:27.272Z,99020.84
2023-05-13T22:05:54.047Z,99023.69
2023-05-13T22:08:21.067Z,98998.22
2023-05-13T22:10:47.877Z,99024.44
2023-05-13T22:13:14.471Z,99029.31
2023-05-13T22:15:41.240Z,99038.09
2023-05-13T22:18:07.923Z,99031.97
2023-05-13T22:20:34.633Z,99028.03
2023-05-13T22:23:01.178Z,99034.63
2023-05-13T22:25:27.794Z,99037.34
2023-05-13T22:27:54.451Z,99035.69
2023-05-13T22:30:21.196Z,99028.97
2023-05-13T22:32:48.211Z,99034.91
2023-05-13T22:35:14.781Z,99039.28
2023-05-13T22:37:41.310Z,99043.63
2023-05-13T22:40:10.411Z,99033.97
2023-05-13T22:42:37.094Z,99034.09
2023-05-13T22:45:04.407Z,99020.53
2023-05-13T22:47:31.047Z,99031.53
2023-05-13T22:49:57.740Z,99034.91
2023-05-13T22:52:24.207Z,99031.44
2023-05-13T22:54:50.845Z,99027.09
2023-05-13T22:57:17.337Z,99026.22
2023-05-13T22:59:43.990Z,99026.34
2023-05-13T23:02:10.514Z,99029.81
2023-05-13T23:04:37.080Z,99025.41
2023-05-13T23:07:03.745Z,99030.81
2023-05-13T23:09:30.435Z,99015.88
2023-05-13T23:11:57.650Z,99025.50
2023-05-13T23:14:25.583Z,99021.16
2023-05-13T23:16:53.365Z,99022.09
2023-05-13T23:19:19.997Z,98999.63
2023-05-13T23:21:46.500Z,99018.59
2023-05-13T23:24:13.540Z,99015.94
2023-05-13T23:26:40.016Z,99003.09
2023-05-13T23:29:06.854Z,99016.91
2023-05-13T23:31:33.629Z,99016.06
2023-05-13T23:34:00.328Z,99015.22
2023-05-13T23:36:26.861Z,99002.38
2023-05-13T23:38:53.551Z,99012.56
2023-05-13T23:41:20.082Z,99012.56
2023-05-13T23:43:46.589Z,99005.59
2023-05-13T23:46:13.231Z,99011.72
2023-05-13T23:48:40.172Z,98997.66
2023-05-13T23:51:06.695Z,98992.34
2023-05-13T23:53:33.607Z,98982.03
2023-05-13T23:56:00.239Z,98981.94
2023-05-13T23:58:26.905Z,98980.97
